Terminal Aerodrome Forecast
Issued by NWS

Home | Current Version | Previous Version | Text Only | Print | Product List | Glossary On
Versions: 1 2 3 4 5 6 7 8 9 10 11 12 13 14 15 16 17 18 19 20 21 22 23 24 25 26 27 28 29 30
000
FTUS41 KILN 040539
TAFLUK
TAF
KLUK 040539Z 0406/0506 00000KT 5SM BR SCT050
      TEMPO 0406/0409 2SM BR
     FM040900 00000KT 4SM BR SCT040
      TEMPO 0409/0412 1/4SM FG VV002
     FM041300 VRB03KT P6SM SKC
     FM041600 28008KT P6SM SCT040
     FM050000 31003KT P6SM SKC=

USA.gov is the U.S. government's official web portal to all federal, state and local government web resources and services.